Jack Robertson — WDE5993 — position and weather

sailwx.info

Track history (hours):
 
Tides and Currents Weather Stations Pressure Air Temp Water Temp Dewpoint Dewpoint Depression Visibility Wind Speed Wind Dir Waves Ship Positions

Oceanographic research ship Jack Robertson (United States)

Owner: University of Washington Applied Physics Laboratory, Seattle, WA. More information available from US FCC via Universal Licensing System and Coast Guard Vessel Documentation Center.

Last reported at 2020-Jan-25 17:30 UTC. Time now 2020-Jan-25 17:40 UTC.
Position N 47°41' W 122°53'.

; draft 1.7 m.

Type: Other ship. MMSI: 367374350.

Date/timePositionNaut miles runAvg speedWind from/ knotsBaromVisibWave heightAir tempDewpointWater temp
2020-Jan-25 17:30N 47°41' W 122°53'2 0.1
2020-Jan-25 01:00N 47°40' W 122°55'4 7.4
2020-Jan-25 00:30N 47°42' W 122°51'5 3.1
2020-Jan-24 23:00N 47°46' W 122°48'2 0.8
2020-Jan-24 20:31N 47°46' W 122°51'0 0.0
2020-Jan-24 20:00N 47°46' W 122°51'2 3.8
2020-Jan-24 19:30N 47°46' W 122°48'8 2.3
2020-Jan-24 16:00N 47°40' W 122°55'0 0.0
2020-Jan-24 02:27N 47°40' W 122°55'7 3.4
2020-Jan-24 00:30N 47°45' W 122°50'1 0.8
2020-Jan-23 23:30N 47°45' W 122°48'1 1.0
2020-Jan-23 22:00N 47°47' W 122°48'3 0.6
2020-Jan-23 16:30N 47°44' W 122°50'3 3.2
2020-Jan-23 15:30N 47°41' W 122°53'6 0.3
2020-Jan-22 19:00N 47°46' W 122°48'8 2.0
2020-Jan-22 15:00N 47°40' W 122°55'0 0.0
2020-Jan-22 13:00N 47°40' W 122°55'0 0.0
2020-Jan-22 10:54N 47°40' W 122°55'0 0.0
2020-Jan-22 08:15N 47°40' W 122°55'0 0.0
2020-Jan-22 04:00N 47°40' W 122°55'0 0.0
2020-Jan-22 03:30N 47°40' W 122°55'8 2.3
2020-Jan-22 00:01N 47°46' W 122°48'0 0.0
2020-Jan-21 20:31N 47°46' W 122°48'8 0.5
2020-Jan-21 03:40N 47°40' W 122°55'0 0.0
2020-Jan-21 03:10N 47°40' W 122°55'11 1.9
2020-Jan-20 20:58N 47°48' W 122°43'11 4.6
2020-Jan-20 18:31N 47°52' W 122°27'11 7.4
2020-Jan-20 17:01N 47°41' W 122°24'  
2020-Jan-15 23:07N 47°39' W 122°19'0 0.5
2020-Jan-15 22:30N 47°39' W 122°20'  
Track history (hours):
 
Tides and Currents Weather Stations Pressure Air Temp Water Temp Dewpoint Dewpoint Depression Visibility Wind Speed Wind Dir Waves Ship Positions

Oceanographic research ship Jack Robertson (United States)

Owner: University of Washington Applied Physics Laboratory, Seattle, WA. More information available from US FCC via Universal Licensing System and Coast Guard Vessel Documentation Center.

Last reported at 2020-Jan-25 17:30 UTC. Time now 2020-Jan-25 17:40 UTC.
Position N 47°41' W 122°53'.

; draft 1.7 m.

Type: Other ship. MMSI: 367374350.

Date/timePositionNaut miles runAvg speedWind from/ knotsBaromVisibWave heightAir tempDewpointWater temp
2020-Jan-25 17:30N 47°41' W 122°53'2 0.1
2020-Jan-25 01:00N 47°40' W 122°55'4 7.4
2020-Jan-25 00:30N 47°42' W 122°51'5 3.1
2020-Jan-24 23:00N 47°46' W 122°48'2 0.8
2020-Jan-24 20:31N 47°46' W 122°51'0 0.0
2020-Jan-24 20:00N 47°46' W 122°51'2 3.8
2020-Jan-24 19:30N 47°46' W 122°48'8 2.3
2020-Jan-24 16:00N 47°40' W 122°55'0 0.0
2020-Jan-24 02:27N 47°40' W 122°55'7 3.4
2020-Jan-24 00:30N 47°45' W 122°50'1 0.8
2020-Jan-23 23:30N 47°45' W 122°48'1 1.0
2020-Jan-23 22:00N 47°47' W 122°48'3 0.6
2020-Jan-23 16:30N 47°44' W 122°50'3 3.2
2020-Jan-23 15:30N 47°41' W 122°53'6 0.3
2020-Jan-22 19:00N 47°46' W 122°48'8 2.0
2020-Jan-22 15:00N 47°40' W 122°55'0 0.0
2020-Jan-22 13:00N 47°40' W 122°55'0 0.0
2020-Jan-22 10:54N 47°40' W 122°55'0 0.0
2020-Jan-22 08:15N 47°40' W 122°55'0 0.0
2020-Jan-22 04:00N 47°40' W 122°55'0 0.0
2020-Jan-22 03:30N 47°40' W 122°55'8 2.3
2020-Jan-22 00:01N 47°46' W 122°48'0 0.0
2020-Jan-21 20:31N 47°46' W 122°48'8 0.5
2020-Jan-21 03:40N 47°40' W 122°55'0 0.0
2020-Jan-21 03:10N 47°40' W 122°55'11 1.9
2020-Jan-20 20:58N 47°48' W 122°43'11 4.6
2020-Jan-20 18:31N 47°52' W 122°27'11 7.4
2020-Jan-20 17:01N 47°41' W 122°24'  
2020-Jan-15 23:07N 47°39' W 122°19'0 0.5
2020-Jan-15 22:30N 47°39' W 122°20'  

Dump ship's entire track history